Time;durP1;ratioP1;P1;durP2;ratioP2;P2;SDS_P1;SDS_P2;PMS_P1;PMS_P2;Temp;Humidity;BMP_temperature;BMP_pressure;BME280_temperature;BME280_humidity;BME280_pressure;Samples;Min_cycle;Max_cycle;Signal;HPM_P1;HPM_P2
2023/05/19 05:01:49;;;;;;;;;11.33;9.00;;;;;14.30;53.56;62324.44;6309708;22;45646;-88
2023/05/19 05:04:14;;;;;;;;;14.33;9.00;;;;;14.63;53.94;62335.75;6340201;22;45646;-88
2023/05/19 05:06:46;;;;;;;;;13.00;12.00;;;;;14.52;53.66;62156.47;6339687;22;46678;-88
2023/05/19 05:09:12;;;;;;;;;10.67;7.67;;;;;14.51;53.42;62083.66;6339913;22;45649;-87
2023/05/19 05:11:37;;;;;;;;;7.00;6.33;;;;;14.59;53.92;61993.50;6339942;22;45415;-87
2023/05/19 05:14:03;;;;;;;;;13.33;10.00;;;;;14.66;53.69;61897.94;6340621;22;45346;-88
2023/05/19 05:16:28;;;;;;;;;10.33;10.33;;;;;14.66;53.59;61834.19;6339775;22;47507;-88
2023/05/19 05:18:54;;;;;;;;;10.00;8.67;;;;;14.84;53.86;61714.78;6368057;22;45404;-87
2023/05/19 05:21:20;;;;;;;;;9.33;8.00;;;;;14.55;53.79;61504.16;6368605;22;45593;-87
2023/05/19 05:23:45;;;;;;;;;10.00;10.00;;;;;14.90;53.74;61434.22;6366344;22;45297;-87
2023/05/19 05:26:18;;;;;;;;;8.67;7.67;;;;;14.58;53.89;61501.50;6339103;22;47242;-88
2023/05/19 05:28:44;;;;;;;;;11.67;8.67;;;;;14.66;53.59;61379.38;6364470;22;45368;-86
2023/05/19 05:31:09;;;;;;;;;12.67;11.33;;;;;14.95;53.68;61335.38;6367447;22;45325;-86
2023/05/19 05:33:35;;;;;;;;;9.00;8.33;;;;;14.25;53.80;61336.66;6368417;22;45342;-85
2023/05/19 05:36:00;;;;;;;;;13.00;8.67;;;;;14.57;54.05;61094.06;6312162;22;46057;-85
2023/05/19 05:38:25;;;;;;;;;89.75;73.50;;;;;14.99;53.62;61267.88;6339895;22;45788;-85
2023/05/19 05:40:51;;;;;;;;;40.25;34.50;;;;;15.01;53.52;61163.69;6367202;22;45314;-85
2023/05/19 05:43:16;;;;;;;;;13.67;11.33;;;;;14.98;53.23;61192.94;6367297;22;45488;-86
2023/05/19 05:45:41;;;;;;;;;12.67;10.33;;;;;14.93;53.63;61214.16;6367590;22;46313;-85
2023/05/19 05:48:07;;;;;;;;;8.33;8.00;;;;;14.71;53.65;61265.69;6367913;22;45278;-85
2023/05/19 05:50:33;;;;;;;;;10.67;9.33;;;;;14.80;53.92;61062.19;6338790;22;45290;-85
2023/05/19 05:53:00;;;;;;;;;8.00;7.33;;;;;14.91;53.35;60953.75;6367832;22;45477;-85
2023/05/19 05:55:26;;;;;;;;;11.00;9.67;;;;;14.94;53.67;60946.84;6339231;22;46483;-87
2023/05/19 05:57:51;;;;;;;;;9.33;8.00;;;;;14.98;53.53;60929.28;6338608;22;45455;-85
2023/05/19 06:00:17;;;;;;;;;13.33;11.33;;;;;14.47;53.89;60746.19;6367411;22;45499;-84
2023/05/19 06:02:48;;;;;;;;;13.67;9.00;;;;;14.88;53.60;60664.16;6367983;22;45728;-85
2023/05/19 06:05:13;;;;;;;;;13.67;13.67;;;;;15.22;53.23;60563.41;6338325;22;45773;-86
2023/05/19 06:07:39;;;;;;;;;9.33;9.00;;;;;14.92;53.74;60641.81;6365794;22;45310;-86
2023/05/19 06:10:06;;;;;;;;;12.33;9.00;;;;;14.66;53.24;60529.41;6338265;22;45411;-85
2023/05/19 06:12:31;;;;;;;;;14.33;11.33;;;;;15.13;53.35;60607.09;6367825;22;45427;-85
2023/05/19 06:14:56;;;;;;;;;9.33;6.33;;;;;14.93;53.23;60515.31;6367520;22;45447;-85
2023/05/19 06:17:22;;;;;;;;;11.00;8.33;;;;;15.23;53.37;60396.47;6366155;22;45679;-85
2023/05/19 06:19:47;;;;;;;;;9.33;8.67;;;;;15.07;53.44;60465.22;6367285;22;45439;-83
2023/05/19 06:22:12;;;;;;;;;5.00;3.33;;;;;15.01;53.31;60496.66;6366915;22;45453;-84
2023/05/19 06:24:38;;;;;;;;;12.00;8.67;;;;;15.31;53.00;60554.28;6337521;22;48030;-84
2023/05/19 06:27:03;;;;;;;;;14.67;12.33;;;;;15.33;53.44;60532.44;6338529;22;45558;-87
2023/05/19 06:29:29;;;;;;;;;10.00;9.00;;;;;15.41;52.96;60551.50;6337966;22;45396;-84
2023/05/19 06:31:55;;;;;;;;;9.67;7.67;;;;;15.52;52.86;60528.00;6367645;22;45545;-84
2023/05/19 06:34:20;;;;;;;;;8.00;6.33;;;;;15.25;52.88;60515.53;6363971;22;47075;-83
2023/05/19 06:36:45;;;;;;;;;9.67;7.67;;;;;15.48;52.56;60523.25;6364616;22;45244;-85
2023/05/19 06:39:11;;;;;;;;;9.00;7.33;;;;;15.46;52.66;60486.59;6367608;22;45455;-84
2023/05/19 06:41:36;;;;;;;;;11.67;7.00;;;;;15.59;53.07;60417.78;6367304;22;45394;-84
2023/05/19 06:44:03;;;;;;;;;6.67;6.67;;;;;15.43;52.96;60382.38;6339762;22;46550;-82
2023/05/19 06:46:28;;;;;;;;;10.00;7.33;;;;;15.74;52.50;60375.03;6366949;22;45366;-82
2023/05/19 06:48:53;;;;;;;;;6.33;6.33;;;;;15.73;52.49;60323.47;6367635;22;45253;-82
2023/05/19 06:51:21;;;;;;;;;8.33;7.33;;;;;15.82;52.62;60298.28;6339914;22;45475;-82
2023/05/19 06:53:47;;;;;;;;;8.33;8.33;;;;;15.83;52.58;60355.22;6366792;22;45655;-84
2023/05/19 06:56:16;;;;;;;;;7.67;7.67;;;;;15.91;52.54;60280.06;6365605;22;45360;-83
2023/05/19 06:58:42;;;;;;;;;5.33;5.33;;;;;15.86;52.21;60288.16;6338902;22;45444;-83
2023/05/19 07:01:07;;;;;;;;;9.67;8.00;;;;;15.71;52.47;60243.69;6367009;22;45319;-84
2023/05/19 07:03:33;;;;;;;;;9.00;7.00;;;;;16.01;52.42;60288.44;6366377;22;46120;-86
2023/05/19 07:05:58;;;;;;;;;11.67;9.00;;;;;15.91;52.25;60139.56;6339181;22;45368;-86
2023/05/19 07:08:23;;;;;;;;;9.00;7.00;;;;;16.08;52.47;60089.75;6367541;22;45766;-84
2023/05/19 07:10:49;;;;;;;;;7.00;6.33;;;;;16.12;52.52;59902.81;6340148;22;45916;-82
2023/05/19 07:13:14;;;;;;;;;7.67;7.67;;;;;16.07;52.32;59915.72;6368222;22;46018;-78
2023/05/19 07:15:39;;;;;;;;;6.00;6.00;;;;;16.19;52.30;59734.41;6366206;22;45449;-79
2023/05/19 07:18:05;;;;;;;;;12.00;6.00;;;;;16.23;52.21;59666.69;6366358;22;45836;-78
2023/05/19 07:20:30;;;;;;;;;7.33;6.33;;;;;15.89;52.55;59456.34;6339156;22;45527;-80
2023/05/19 07:22:56;;;;;;;;;7.67;6.33;;;;;16.28;52.49;59479.19;6367192;22;46825;-80
2023/05/19 07:25:21;;;;;;;;;5.33;5.33;;;;;16.32;52.52;59326.78;6366713;22;45334;-79
2023/05/19 07:27:46;;;;;;;;;10.67;7.67;;;;;16.33;52.29;59143.59;6367267;22;45484;-80
2023/05/19 07:30:12;;;;;;;;;8.00;8.00;;;;;16.40;52.54;58972.41;6368246;22;45372;-81
2023/05/19 07:32:37;;;;;;;;;11.00;7.67;;;;;16.45;52.43;58953.59;6368306;22;45327;-80
2023/05/19 07:35:05;;;;;;;;;6.67;6.00;;;;;16.50;52.53;58793.63;6340110;22;45308;-80
2023/05/19 07:37:30;;;;;;;;;7.00;7.00;;;;;16.08;52.67;58735.22;6368832;22;45343;-81
2023/05/19 07:39:56;;;;;;;;;12.00;6.00;;;;;16.46;52.36;58736.81;6369058;22;45311;-82
2023/05/19 07:42:41;;;;;;;;;9.33;7.67;;;;;16.23;52.04;58604.19;6368391;22;45699;-89
2023/05/19 07:45:13;;;;;;;;;5.67;5.67;;;;;16.67;52.15;58688.00;6340650;22;45302;-79
2023/05/19 07:47:39;;;;;;;;;7.33;7.33;;;;;16.71;52.13;58481.16;6340116;22;45463;-80
2023/05/19 07:50:05;;;;;;;;;8.67;6.33;;;;;16.49;52.59;58473.13;6368904;22;45440;-80
2023/05/19 07:52:30;;;;;;;;;10.00;7.67;;;;;16.80;52.07;58471.72;6368439;22;45368;-85
2023/05/19 07:54:55;;;;;;;;;6.00;6.00;;;;;16.80;51.76;58426.44;6368213;22;45429;-85
2023/05/19 07:57:21;;;;;;;;;12.00;9.00;;;;;16.76;52.06;58486.25;6368872;22;45527;-83
2023/05/19 07:59:46;;;;;;;;;6.33;6.33;;;;;16.92;51.70;58459.94;6369013;22;45512;-84
2023/05/19 08:02:11;;;;;;;;;5.00;5.00;;;;;16.98;51.80;58540.66;6368460;22;45619;-84
2023/05/19 08:04:37;;;;;;;;;8.00;7.67;;;;;16.91;51.53;58386.50;6368411;22;45770;-84
2023/05/19 08:07:02;;;;;;;;;6.33;6.00;;;;;16.85;51.48;58340.94;6368331;22;45652;-81
2023/05/19 08:09:28;;;;;;;;;6.00;6.00;;;;;16.82;51.82;58154.13;6368750;22;45438;-84
2023/05/19 08:11:53;;;;;;;;;6.33;6.33;;;;;16.95;51.88;58014.91;6368112;22;45994;-83
2023/05/19 08:14:21;;;;;;;;;9.00;7.67;;;;;16.96;51.44;58055.88;6368240;22;45369;-83
2023/05/19 08:16:47;;;;;;;;;5.33;4.33;;;;;17.13;51.97;57769.28;6368633;22;45365;-81
2023/05/19 08:19:12;;;;;;;;;9.00;7.67;;;;;17.33;51.73;57548.53;6369015;22;45504;-79
2023/05/19 08:21:38;;;;;;;;;9.33;6.00;;;;;17.14;51.96;57431.91;6367740;22;46210;-80
2023/05/19 08:24:03;;;;;;;;;6.67;6.67;;;;;17.40;51.60;57094.91;6368540;22;45368;-81
2023/05/19 08:26:29;;;;;;;;;8.33;6.00;;;;;17.50;51.93;56819.16;6368920;22;45299;-81
2023/05/19 08:28:55;;;;;;;;;6.00;5.67;;;;;17.57;51.93;56654.97;6368893;22;45318;-81
2023/05/19 08:31:21;;;;;;;;;7.67;4.33;;;;;17.47;51.82;56592.78;6339562;22;45398;-80
2023/05/19 08:33:46;;;;;;;;;9.00;6.67;;;;;17.61;52.00;56384.34;6368655;22;45250;-81
2023/05/19 08:36:12;;;;;;;;;7.67;6.67;;;;;17.76;51.74;56339.94;6365811;22;45990;-82
2023/05/19 08:38:37;;;;;;;;;9.00;7.33;;;;;17.82;51.58;56258.34;6365817;22;45396;-82
2023/05/19 08:41:03;;;;;;;;;7.33;6.00;;;;;17.88;51.63;56272.22;6364143;22;51527;-82
2023/05/19 08:43:28;;;;;;;;;8.67;5.33;;;;;17.95;51.66;56472.78;6336999;22;45398;-80
2023/05/19 08:45:54;;;;;;;;;7.33;6.67;;;;;17.84;51.25;56281.13;6336582;22;45803;-84
2023/05/19 08:48:20;;;;;;;;;5.00;5.00;;;;;17.97;51.23;55970.69;6365865;22;45721;-83
2023/05/19 08:50:56;;;;;;;;;9.00;5.00;;;;;18.17;51.31;55912.31;6363201;22;46062;-82
2023/05/19 08:53:26;;;;;;;;;5.33;5.33;;;;;17.88;50.77;55832.22;6365729;22;45724;-87
2023/05/19 08:56:08;;;;;;;;;4.33;4.33;;;;;18.29;50.92;55516.28;6363734;22;45375;-85
2023/05/19 08:58:34;;;;;;;;;5.33;5.33;;;;;18.73;50.66;54767.19;6365453;22;45472;-85
2023/05/19 09:01:01;;;;;;;;;4.00;4.00;;;;;19.07;50.51;53506.28;6338534;22;45827;-84
2023/05/19 09:03:28;;;;;;;;;6.00;4.67;;;;;19.82;50.40;51760.28;6367939;22;45292;-83
2023/05/19 09:05:53;;;;;;;;;4.00;4.00;;;;;20.56;49.37;50766.66;6365821;22;45460;-78
2023/05/19 09:08:19;;;;;;;;;5.33;5.00;;;;;21.49;48.78;48520.59;6366876;22;45483;-79
2023/05/19 09:10:45;;;;;;;;;4.33;4.33;;;;;22.28;47.77;48012.53;6367256;22;45673;-78
2023/05/19 09:13:10;;;;;;;;;7.33;5.00;;;;;23.28;47.40;47415.56;6339664;22;45484;-80
2023/05/19 09:15:38;;;;;;;;;6.00;5.00;;;;;24.04;46.44;48290.91;6367037;22;45345;-80
2023/05/19 09:18:12;;;;;;;;;78.00;60.25;;;;;24.76;44.75;51422.16;6366285;22;45401;-81
2023/05/19 09:20:42;;;;;;;;;8.33;7.67;;;;;25.68;44.15;52872.56;6367824;22;45392;-81
2023/05/19 09:23:15;;;;;;;;;7.00;7.00;;;;;26.29;43.12;55320.47;6366192;22;45328;-79
2023/05/19 09:25:51;;;;;;;;;6.00;6.00;;;;;26.95;42.21;58610.97;6368587;22;45339;-81
2023/05/19 09:28:29;;;;;;;;;6.00;5.00;;;;;27.53;40.33;63743.69;6367750;22;45516;-80
2023/05/19 09:31:08;;;;;;;;;6.33;6.00;;;;;28.04;40.16;63912.00;6367411;22;45734;-80
2023/05/19 09:33:41;;;;;;;;;8.00;7.00;;;;;28.46;39.40;65144.06;6367560;22;45604;-81
2023/05/19 09:36:10;;;;;;;;;10.00;6.00;;;;;28.80;38.95;66476.75;6366296;22;45404;-81
2023/05/19 09:38:36;;;;;;;;;8.33;7.33;;;;;29.26;38.22;67436.84;6365864;22;45761;-82
2023/05/19 09:41:03;;;;;;;;;5.00;5.00;;;;;29.69;37.41;69547.97;6365069;22;46232;-81
2023/05/19 09:43:32;;;;;;;;;8.67;7.00;;;;;29.67;37.00;69933.34;6365817;22;45658;-83
2023/05/19 09:46:10;;;;;;;;;5.33;5.33;;;;;30.19;36.51;71047.13;6336722;22;46003;-82
2023/05/19 09:48:36;;;;;;;;;7.00;6.00;;;;;30.25;36.06;71433.81;6336054;22;45732;-79
2023/05/19 09:51:04;;;;;;;;;6.33;4.67;;;;;30.53;35.98;71781.50;6335635;22;46181;-80
2023/05/19 09:53:32;;;;;;;;;5.00;5.00;;;;;30.50;35.19;72299.50;6364788;22;45356;-78
2023/05/19 09:56:00;;;;;;;;;3.33;3.33;;;;;30.69;35.29;72571.00;6336742;22;45453;-79
2023/05/19 09:58:30;;;;;;;;;3.00;3.00;;;;;30.90;34.75;72720.03;6364975;22;45558;-79
2023/05/19 10:00:57;;;;;;;;;6.00;4.00;;;;;31.02;33.86;72807.47;6363681;22;46208;-78
2023/05/19 10:03:24;;;;;;;;;6.67;6.67;;;;;31.09;34.46;72907.06;6365708;22;45429;-79
2023/05/19 10:05:51;;;;;;;;;4.33;4.33;;;;;31.16;34.62;73245.41;6335498;22;45457;-77
2023/05/19 10:08:17;;;;;;;;;6.33;5.00;;;;;31.21;33.69;72931.66;6365025;22;45760;-78
2023/05/19 10:10:46;;;;;;;;;5.33;4.67;;;;;31.33;33.25;73029.28;6363408;22;46044;-79
2023/05/19 10:13:11;;;;;;;;;4.67;4.67;;;;;31.62;34.45;73329.63;6364828;22;45891;-79
2023/05/19 10:15:39;;;;;;;;;5.33;5.33;;;;;31.86;35.01;73684.22;6365551;22;45677;-79
2023/05/19 10:18:10;;;;;;;;;5.00;5.00;;;;;32.02;34.40;73627.03;6365996;22;45593;-79
2023/05/19 10:20:36;;;;;;;;;4.67;4.00;;;;;32.24;33.25;73687.50;6336653;22;47095;-78
2023/05/19 10:23:02;;;;;;;;;5.67;4.00;;;;;32.58;33.16;73594.59;6310058;22;45682;-77
2023/05/19 10:25:30;;;;;;;;;5.33;5.33;;;;;32.77;32.88;73900.84;6363807;22;45354;-78
2023/05/19 10:28:02;;;;;;;;;5.00;3.33;;;;;32.94;32.12;73643.94;6365472;22;45425;-78
2023/05/19 10:30:31;;;;;;;;;6.33;5.33;;;;;33.10;31.68;73405.50;6364835;22;47188;-79
2023/05/19 10:33:00;;;;;;;;;4.00;4.00;;;;;33.11;30.92;73244.91;6364896;22;45774;-79
2023/05/19 10:36:07;;;;;;;;;5.33;5.33;;;;;33.38;30.06;72943.72;6364655;22;45439;-82
2023/05/19 10:42:16;;;;;;;;;4.00;4.00;;;;;32.98;29.01;72239.25;6360540;22;45625;-86
2023/05/19 10:45:15;;;;;;;;;5.00;5.00;;;;;33.70;29.13;72317.81;6364688;22;45492;-85
2023/05/19 10:47:41;;;;;;;;;4.00;4.00;;;;;33.84;30.57;72804.00;6362761;22;45381;-86
2023/05/19 10:50:07;;;;;;;;;6.50;5.25;;;;;32.92;30.67;72607.50;6365497;22;45353;-85
2023/05/19 10:52:37;;;;;;;;;5.00;5.00;;;;;32.72;30.34;72312.03;6364080;22;45500;-87
2023/05/19 10:55:03;;;;;;;;;4.00;3.33;;;;;33.18;29.36;72161.78;6337208;22;45473;-86
2023/05/19 10:57:35;;;;;;;;;5.00;5.00;;;;;33.11;30.24;72087.97;6335946;22;45493;-86
2023/05/19 11:00:23;;;;;;;;;5.00;3.00;;;;;32.79;30.81;72169.88;6364865;22;45496;-86
2023/05/19 11:02:54;;;;;;;;;5.00;5.00;;;;;32.55;30.18;71927.88;6336376;22;47387;-86
2023/05/19 11:05:28;;;;;;;;;3.50;3.25;;;;;32.16;29.75;71678.66;6337830;22;45493;-86
2023/05/19 11:15:00;;;;;;;;;5.50;4.00;;;;;31.80;29.73;71525.19;6362043;22;45713;-84
2023/05/19 11:23:20;;;;;;;;;4.00;4.00;;;;;32.71;30.57;71822.94;6365394;22;45371;-86
2023/05/19 11:25:49;;;;;;;;;4.25;4.25;;;;;32.80;30.37;71957.91;6373695;22;46254;-85
2023/05/19 11:28:24;;;;;;;;;4.33;4.33;;;;;33.06;30.40;72057.16;6365341;22;45735;-84
2023/05/19 11:30:52;;;;;;;;;4.00;4.00;;;;;33.27;30.83;72213.34;6365585;22;45695;-84
2023/05/19 11:39:35;;;;;;;;;3.25;3.25;;;;;32.45;30.07;71476.66;6362929;22;45416;-78
2023/05/19 11:42:01;;;;;;;;;5.00;4.75;;;;;32.43;30.38;71498.88;6364956;22;45704;-78
2023/05/19 11:44:26;;;;;;;;;3.75;3.75;;;;;32.28;31.04;71468.13;6364331;22;45504;-77
2023/05/19 11:46:55;;;;;;;;;3.25;3.25;;;;;31.73;30.79;71361.91;6334673;22;52370;-87
2023/05/19 11:49:20;;;;;;;;;1.33;1.00;;;;;31.61;31.04;71302.91;6364385;22;45468;-80
2023/05/19 11:51:45;;;;;;;;;2.50;2.50;;;;;31.47;31.71;71309.00;6338122;22;45338;-79
2023/05/19 11:54:11;;;;;;;;;2.00;2.00;;;;;31.42;32.19;71411.69;6339625;22;45453;-79
2023/05/19 11:56:41;;;;;;;;;2.75;2.75;;;;;31.24;31.59;71388.22;6366583;22;45988;-80
2023/05/19 11:59:07;;;;;;;;;4.33;3.33;;;;;31.29;32.24;71427.13;6366699;22;45303;-79
2023/05/19 12:01:33;;;;;;;;;2.00;2.00;;;;;31.04;32.00;71290.06;6366424;22;45366;-80
2023/05/19 12:04:02;;;;;;;;;4.33;4.33;;;;;30.55;32.36;71174.88;6367251;22;45355;-78
2023/05/19 12:06:28;;;;;;;;;3.00;3.00;;;;;30.59;32.68;71289.00;6338144;22;48492;-82
2023/05/19 12:08:58;;;;;;;;;4.00;4.00;;;;;30.29;32.55;71240.06;6365496;22;45439;-82
2023/05/19 12:11:23;;;;;;;;;4.00;3.00;;;;;30.31;32.44;71205.78;6365556;22;45306;-81
2023/05/19 12:13:53;;;;;;;;;3.00;3.00;;;;;30.23;32.90;71234.88;6337060;22;45417;-82
2023/05/19 12:18:47;;;;;;;;;2.75;2.75;;;;;29.18;33.53;70988.16;6344879;22;71934;-81
2023/05/19 12:21:13;;;;;;;;;5.67;5.00;;;;;29.32;33.43;70933.69;6363203;22;45381;-82
2023/05/19 12:23:42;;;;;;;;;8.67;5.33;;;;;29.42;34.18;71082.09;6368300;22;45334;-82
2023/05/19 12:26:10;;;;;;;;;4.67;4.67;;;;;29.16;34.66;71072.94;6367231;22;45371;-84
2023/05/19 12:28:36;;;;;;;;;6.00;4.00;;;;;28.88;33.22;70910.88;6365314;22;46012;-85
2023/05/19 12:31:01;;;;;;;;;4.33;4.33;;;;;28.74;32.99;70726.28;6367286;22;45354;-82
2023/05/19 12:33:27;;;;;;;;;4.00;4.00;;;;;28.76;32.26;70611.63;6367765;22;45499;-82
2023/05/19 12:35:53;;;;;;;;;4.00;4.00;;;;;28.61;33.55;70775.88;6366281;22;47596;-81
2023/05/19 12:38:19;;;;;;;;;8.00;3.75;;;;;28.42;33.88;70767.69;6367670;22;45395;-81
2023/05/19 12:40:45;;;;;;;;;3.75;3.75;;;;;28.31;34.21;70805.47;6367247;22;45337;-81
2023/05/19 12:43:22;;;;;;;;;7.00;4.67;;;;;28.11;34.34;70798.75;6367993;22;45372;-82
2023/05/19 12:45:48;;;;;;;;;6.00;4.00;;;;;27.90;34.56;70740.69;6367228;22;45478;-83
2023/05/19 12:48:14;;;;;;;;;6.00;4.00;;;;;27.87;35.49;70775.72;6338357;22;45323;-82
2023/05/19 12:50:40;;;;;;;;;4.00;2.67;;;;;27.74;35.42;70743.63;6339815;22;45356;-80
2023/05/19 12:53:10;;;;;;;;;2.00;2.00;;;;;27.45;35.54;70766.19;6338908;22;45518;-80
2023/05/19 12:55:43;;;;;;;;;3.00;3.00;;;;;27.48;36.32;70772.53;6337634;22;46130;-82
2023/05/19 12:58:10;;;;;;;;;4.00;2.25;;;;;27.31;36.61;70790.59;6365820;22;45736;-80
2023/05/19 13:00:45;;;;;;;;;4.33;3.33;;;;;27.07;36.81;70778.38;6339358;22;45315;-81
2023/05/19 13:03:15;;;;;;;;;4.67;3.33;;;;;27.05;37.39;70795.56;6339249;22;45300;-82
2023/05/19 13:05:42;;;;;;;;;3.00;3.00;;;;;26.84;36.96;70718.53;6365647;22;47008;-85
2023/05/19 13:08:10;;;;;;;;;3.67;3.00;;;;;26.68;36.95;70686.78;6367104;22;45742;-83
2023/05/19 13:10:37;;;;;;;;;5.33;1.33;;;;;26.66;37.03;70668.06;6366099;22;45318;-81
2023/05/19 13:13:06;;;;;;;;;2.33;2.33;;;;;26.51;36.84;70628.78;6368617;22;45715;-83
2023/05/19 13:15:40;;;;;;;;;4.00;4.00;;;;;26.37;36.67;70616.66;6367829;22;45993;-86
2023/05/19 13:18:16;;;;;;;;;6.00;4.00;;;;;26.02;35.91;70424.28;6336805;22;45500;-87
2023/05/19 13:20:43;;;;;;;;;3.67;3.67;;;;;26.10;37.47;70590.59;6365307;22;45422;-85
2023/05/19 13:26:07;;;;;;;;;2.00;2.00;;;;;24.76;37.10;70392.13;6313327;22;46272;-84
2023/05/19 13:28:33;;;;;;;;;3.00;3.00;;;;;24.99;37.09;70386.84;6307540;22;45832;-86
2023/05/19 13:30:59;;;;;;;;;7.00;4.00;;;;;25.10;37.05;70375.16;6333265;22;45489;-83
2023/05/19 13:33:48;;;;;;;;;4.00;4.00;;;;;24.88;37.66;70340.47;6334142;22;45445;-88
2023/05/19 13:39:17;;;;;;;;;3.75;3.00;;;;;25.12;37.10;70366.72;6361397;22;45741;-80
2023/05/19 13:41:42;;;;;;;;;3.33;2.67;;;;;24.87;36.62;70310.09;6365445;22;45330;-80
2023/05/19 13:44:08;;;;;;;;;3.33;3.33;;;;;24.80;36.30;70253.56;6365925;22;45417;-82
2023/05/19 13:46:33;;;;;;;;;3.75;3.00;;;;;25.31;36.69;70345.16;6363833;22;46335;-83
2023/05/19 13:48:58;;;;;;;;;4.75;3.00;;;;;24.66;36.88;70233.97;6365762;22;45724;-82
2023/05/19 13:51:24;;;;;;;;;4.00;2.00;;;;;25.36;36.95;70310.59;6366676;22;45294;-81
2023/05/19 13:53:49;;;;;;;;;2.33;2.33;;;;;24.79;37.20;70303.16;6367435;22;45342;-83
2023/05/19 13:56:15;;;;;;;;;2.00;2.00;;;;;25.28;36.50;70279.88;6367559;22;45352;-83
2023/05/19 13:58:40;;;;;;;;;4.00;2.67;;;;;24.71;36.79;70177.78;6338540;22;45404;-82
2023/05/19 14:01:06;;;;;;;;;2.00;2.00;;;;;24.54;36.86;70281.72;6367658;22;45286;-83
2023/05/19 14:03:31;;;;;;;;;3.75;3.00;;;;;24.49;36.72;70216.16;6368813;22;45554;-82
2023/05/19 14:05:56;;;;;;;;;4.67;4.00;;;;;24.73;36.70;70199.13;6367320;22;45366;-82
2023/05/19 14:08:22;;;;;;;;;2.67;2.00;;;;;25.24;35.78;70248.00;6367762;22;45345;-82
2023/05/19 14:10:49;;;;;;;;;2.00;2.00;;;;;25.25;36.46;70230.22;6367711;22;45298;-82
2023/05/19 14:13:14;;;;;;;;;2.00;2.00;;;;;25.13;36.77;70313.81;6367202;22;45715;-83
2023/05/19 14:15:43;;;;;;;;;3.00;1.67;;;;;25.02;36.25;70241.59;6366801;22;45718;-81
2023/05/19 14:18:08;;;;;;;;;2.00;2.00;;;;;25.16;37.69;70314.13;6337833;22;45401;-86
2023/05/19 14:20:33;;;;;;;;;2.00;2.00;;;;;25.03;38.09;70304.47;6367472;22;45345;-87
2023/05/19 14:22:59;;;;;;;;;3.00;2.67;;;;;25.02;37.93;70308.66;6368094;22;45299;-87
2023/05/19 14:25:24;;;;;;;;;5.00;5.00;;;;;24.82;37.62;70255.97;6365613;22;45332;-89
2023/05/19 14:27:49;;;;;;;;;4.00;2.00;;;;;24.74;38.24;70330.19;6367128;22;45635;-84
2023/05/19 14:30:15;;;;;;;;;2.00;2.00;;;;;24.81;38.81;70256.84;6366321;22;45285;-83
2023/05/19 14:32:40;;;;;;;;;2.00;2.00;;;;;24.70;38.75;70211.13;6367834;22;45270;-84
2023/05/19 14:35:06;;;;;;;;;2.75;2.75;;;;;24.60;38.96;70245.66;6367368;22;45613;-82
2023/05/19 14:37:37;;;;;;;;;2.00;2.00;;;;;24.57;38.04;70196.66;6367499;22;45443;-89
2023/05/19 14:40:03;;;;;;;;;6.00;5.00;;;;;23.90;38.88;70114.41;6338712;22;45298;-84
2023/05/19 14:42:29;;;;;;;;;5.33;2.33;;;;;24.46;38.67;70226.66;6340306;22;45487;-86
2023/05/19 14:44:54;;;;;;;;;2.33;2.33;;;;;23.75;38.89;70045.63;6338178;22;46924;-86
2023/05/19 14:47:20;;;;;;;;;2.33;2.00;;;;;24.39;38.81;70264.19;6367428;22;45354;-86
2023/05/19 14:49:45;;;;;;;;;2.00;2.00;;;;;23.59;39.51;70216.59;6338972;22;45688;-84
2023/05/19 14:52:11;;;;;;;;;5.67;3.33;;;;;23.72;39.65;70093.34;6336001;22;45495;-83
2023/05/19 14:54:36;;;;;;;;;2.67;2.33;;;;;24.36;39.25;70225.41;6366578;22;46517;-84
2023/05/19 14:57:01;;;;;;;;;3.00;2.00;;;;;23.98;39.33;70178.72;6366206;22;45381;-81
2023/05/19 14:59:28;;;;;;;;;1.67;1.67;;;;;24.33;38.82;70159.63;6365871;22;45427;-80
2023/05/19 15:01:53;;;;;;;;;2.00;2.00;;;;;24.35;38.19;70151.19;6366743;22;45351;-81
2023/05/19 15:04:19;;;;;;;;;2.67;2.67;;;;;24.33;37.80;70119.66;6366570;22;45363;-81
2023/05/19 15:06:44;;;;;;;;;2.00;2.00;;;;;24.40;37.57;70122.69;6365459;22;45370;-81
2023/05/19 15:09:13;;;;;;;;;1.33;1.33;;;;;24.40;37.68;70128.09;6367509;22;45317;-81
2023/05/19 15:11:40;;;;;;;;;2.00;2.00;;;;;24.33;37.00;70159.63;6340404;22;45424;-81
2023/05/19 15:14:05;;;;;;;;;2.00;2.00;;;;;24.45;37.05;70138.94;6366250;22;45993;-80
2023/05/19 15:16:30;;;;;;;;;2.00;2.00;;;;;24.48;37.29;70177.09;6365770;22;45630;-80
2023/05/19 15:18:56;;;;;;;;;2.00;2.00;;;;;24.47;36.91;70081.25;6338246;22;45279;-80
2023/05/19 15:21:21;;;;;;;;;3.00;2.00;;;;;24.44;36.55;70130.22;6338681;22;45422;-80
2023/05/19 15:23:46;;;;;;;;;2.67;1.33;;;;;24.20;36.47;70077.56;6366052;22;46165;-80
2023/05/19 15:26:12;;;;;;;;;1.00;1.00;;;;;24.44;36.92;70164.75;6365451;22;45431;-80
2023/05/19 15:28:37;;;;;;;;;1.00;1.00;;;;;24.36;36.66;70103.75;6366667;22;45600;-80
2023/05/19 15:31:02;;;;;;;;;2.00;2.00;;;;;24.41;36.67;70115.16;6339065;22;45416;-81
2023/05/19 15:33:28;;;;;;;;;1.33;1.33;;;;;24.34;36.64;70106.75;6366655;22;45612;-81
2023/05/19 15:35:53;;;;;;;;;1.00;1.00;;;;;24.24;36.33;70062.88;6338491;22;45433;-80
2023/05/19 15:38:19;;;;;;;;;2.50;2.50;;;;;24.32;36.30;70050.25;6366440;22;45287;-81
2023/05/19 15:40:45;;;;;;;;;1.00;1.00;;;;;24.16;36.25;70099.81;6366762;22;45463;-81
2023/05/19 15:43:10;;;;;;;;;2.33;2.33;;;;;24.27;36.38;70052.38;6365501;22;45314;-80
2023/05/19 15:45:36;;;;;;;;;2.00;2.00;;;;;24.27;36.41;70063.19;6366930;22;45638;-80
2023/05/19 15:48:01;;;;;;;;;3.00;3.00;;;;;24.23;36.21;70000.09;6366994;22;45409;-80
2023/05/19 15:50:27;;;;;;;;;1.67;1.67;;;;;24.15;35.91;70062.84;6367323;22;45327;-81
2023/05/19 15:52:52;;;;;;;;;1.00;1.00;;;;;24.24;36.53;70014.22;6367898;22;45476;-81
2023/05/19 15:55:17;;;;;;;;;3.50;2.00;;;;;24.22;36.24;70061.06;6367721;22;45658;-80
2023/05/19 15:57:43;;;;;;;;;2.00;2.00;;;;;24.12;36.43;70043.63;6339671;22;45294;-81
2023/05/19 16:00:09;;;;;;;;;2.00;2.00;;;;;24.06;36.34;70020.19;6368343;22;45479;-80
2023/05/19 16:02:34;;;;;;;;;1.33;1.33;;;;;24.16;36.14;70013.31;6365402;22;47427;-81
2023/05/19 16:05:00;;;;;;;;;2.00;2.00;;;;;24.12;36.41;70002.50;6366437;22;45437;-81
2023/05/19 16:07:25;;;;;;;;;1.00;1.00;;;;;24.02;35.65;69980.88;6367167;22;45565;-81
2023/05/19 16:09:50;;;;;;;;;1.00;1.00;;;;;24.00;35.99;69948.13;6366909;22;45358;-81
2023/05/19 16:12:16;;;;;;;;;2.00;2.00;;;;;23.93;36.08;69966.75;6366865;22;48846;-80
2023/05/19 16:14:41;;;;;;;;;1.33;1.33;;;;;23.89;36.14;69957.13;6368068;22;45502;-80
2023/05/19 16:17:10;;;;;;;;;1.00;1.00;;;;;23.61;35.81;69888.94;6367106;22;45632;-80
2023/05/19 16:19:36;;;;;;;;;1.00;1.00;;;;;23.79;35.47;69980.81;6340185;22;45415;-80
2023/05/19 16:22:02;;;;;;;;;0.00;0.00;;;;;23.76;35.55;69888.09;6367308;22;46329;-81
2023/05/19 16:24:27;;;;;;;;;2.33;1.00;;;;;23.74;35.62;69963.41;6367483;22;45671;-81
2023/05/19 16:26:52;;;;;;;;;1.00;1.00;;;;;23.58;35.82;69918.34;6366089;22;45532;-81
2023/05/19 16:29:18;;;;;;;;;1.33;1.33;;;;;23.67;35.39;69879.97;6339461;22;45403;-80
2023/05/19 16:31:43;;;;;;;;;2.00;2.00;;;;;23.64;35.35;69900.66;6366276;22;46742;-81
2023/05/19 16:34:09;;;;;;;;;3.00;1.00;;;;;23.61;35.32;69867.34;6366735;22;45491;-82
2023/05/19 16:36:35;;;;;;;;;1.00;1.00;;;;;23.55;35.56;69887.75;6367781;22;45338;-81
2023/05/19 16:39:00;;;;;;;;;1.00;1.00;;;;;23.55;35.19;69908.72;6367550;22;45671;-80
2023/05/19 16:41:26;;;;;;;;;1.00;1.00;;;;;23.51;35.89;69845.16;6364495;22;46240;-80
2023/05/19 16:43:51;;;;;;;;;2.00;1.00;;;;;23.39;35.26;69831.34;6339340;22;45919;-81
2023/05/19 16:46:17;;;;;;;;;1.00;1.00;;;;;23.28;35.25;69836.44;6337529;22;45857;-80
2023/05/19 16:48:42;;;;;;;;;1.00;1.00;;;;;23.20;35.77;69905.66;6338222;22;45481;-81
2023/05/19 16:51:07;;;;;;;;;1.00;1.00;;;;;23.35;35.71;69858.91;6362914;22;46025;-81
2023/05/19 16:53:33;;;;;;;;;2.00;2.00;;;;;23.27;35.81;69846.00;6365072;22;45345;-79
2023/05/19 16:55:58;;;;;;;;;1.00;1.00;;;;;23.32;35.77;69822.31;6337436;22;45424;-79
2023/05/19 16:58:24;;;;;;;;;1.00;1.00;;;;;23.28;35.82;69820.84;6337672;22;45472;-78
2023/05/19 17:00:50;;;;;;;;;1.67;1.00;;;;;23.25;35.88;69838.22;6337918;22;48294;-78
2023/05/19 17:03:16;;;;;;;;;1.67;1.67;;;;;23.18;35.77;69822.31;6366554;22;45786;-79